sensor_id;sensor_type;location;lat;lon;timestamp;P1;durP1;ratioP1;P2;durP2;ratioP2
36691;SDS011;22678;52.052;4.242;2023-07-08T00:02:07;3.58;;;0.82;;
36691;SDS011;22678;52.052;4.242;2023-07-08T00:04:34;5.05;;;1.33;;
36691;SDS011;22678;52.052;4.242;2023-07-08T00:07:00;5.25;;;0.90;;
36691;SDS011;22678;52.052;4.242;2023-07-08T00:09:25;3.58;;;1.33;;
36691;SDS011;22678;52.052;4.242;2023-07-08T00:11:50;5.10;;;1.50;;
36691;SDS011;22678;52.052;4.242;2023-07-08T00:14:16;3.13;;;0.75;;
36691;SDS011;22678;52.052;4.242;2023-07-08T00:16:41;5.88;;;1.35;;
36691;SDS011;22678;52.052;4.242;2023-07-08T00:19:10;3.65;;;1.52;;
36691;SDS011;22678;52.052;4.242;2023-07-08T00:21:35;2.90;;;1.13;;
36691;SDS011;22678;52.052;4.242;2023-07-08T00:24:01;3.40;;;1.08;;
36691;SDS011;22678;52.052;4.242;2023-07-08T00:26:27;2.90;;;1.30;;
36691;SDS011;22678;52.052;4.242;2023-07-08T00:28:55;6.10;;;1.98;;
36691;SDS011;22678;52.052;4.242;2023-07-08T00:31:22;2.60;;;0.80;;
36691;SDS011;22678;52.052;4.242;2023-07-08T00:33:51;3.38;;;1.27;;
36691;SDS011;22678;52.052;4.242;2023-07-08T00:36:20;2.83;;;0.70;;
36691;SDS011;22678;52.052;4.242;2023-07-08T00:38:45;7.93;;;1.30;;
36691;SDS011;22678;52.052;4.242;2023-07-08T00:43:55;4.40;;;1.80;;
36691;SDS011;22678;52.052;4.242;2023-07-08T00:54:41;3.88;;;1.00;;
36691;SDS011;22678;52.052;4.242;2023-07-08T00:57:07;6.22;;;0.95;;
36691;SDS011;22678;52.052;4.242;2023-07-08T00:59:33;6.97;;;1.35;;
36691;SDS011;22678;52.052;4.242;2023-07-08T01:02:04;3.97;;;1.55;;
36691;SDS011;22678;52.052;4.242;2023-07-08T01:04:38;4.75;;;0.95;;
36691;SDS011;22678;52.052;4.242;2023-07-08T01:07:11;3.03;;;1.20;;
36691;SDS011;22678;52.052;4.242;2023-07-08T01:09:37;1.77;;;0.90;;
36691;SDS011;22678;52.052;4.242;2023-07-08T01:12:08;3.63;;;0.68;;
36691;SDS011;22678;52.052;4.242;2023-07-08T01:14:37;2.53;;;1.00;;
36691;SDS011;22678;52.052;4.242;2023-07-08T01:17:07;7.13;;;2.88;;
36691;SDS011;22678;52.052;4.242;2023-07-08T01:19:38;3.90;;;1.38;;
36691;SDS011;22678;52.052;4.242;2023-07-08T01:22:05;5.13;;;1.52;;
36691;SDS011;22678;52.052;4.242;2023-07-08T01:24:33;3.75;;;1.35;;
36691;SDS011;22678;52.052;4.242;2023-07-08T01:27:01;3.75;;;1.30;;
36691;SDS011;22678;52.052;4.242;2023-07-08T01:29:29;3.22;;;1.25;;
36691;SDS011;22678;52.052;4.242;2023-07-08T01:31:55;5.30;;;1.83;;
36691;SDS011;22678;52.052;4.242;2023-07-08T01:34:21;2.78;;;0.95;;
36691;SDS011;22678;52.052;4.242;2023-07-08T01:36:48;4.65;;;1.33;;
36691;SDS011;22678;52.052;4.242;2023-07-08T01:39:18;4.47;;;1.10;;
36691;SDS011;22678;52.052;4.242;2023-07-08T01:41:45;6.82;;;1.45;;
36691;SDS011;22678;52.052;4.242;2023-07-08T01:44:21;3.85;;;1.20;;
36691;SDS011;22678;52.052;4.242;2023-07-08T01:46:49;2.53;;;1.00;;
36691;SDS011;22678;52.052;4.242;2023-07-08T01:49:16;4.20;;;0.75;;
36691;SDS011;22678;52.052;4.242;2023-07-08T01:51:44;2.35;;;0.93;;
36691;SDS011;22678;52.052;4.242;2023-07-08T01:54:10;3.13;;;1.35;;
36691;SDS011;22678;52.052;4.242;2023-07-08T01:56:35;3.53;;;0.90;;
36691;SDS011;22678;52.052;4.242;2023-07-08T01:59:01;4.25;;;1.45;;
36691;SDS011;22678;52.052;4.242;2023-07-08T02:01:26;3.67;;;1.33;;
36691;SDS011;22678;52.052;4.242;2023-07-08T02:03:51;5.60;;;1.10;;
36691;SDS011;22678;52.052;4.242;2023-07-08T02:06:17;2.35;;;1.33;;
36691;SDS011;22678;52.052;4.242;2023-07-08T02:08:42;3.88;;;1.17;;
36691;SDS011;22678;52.052;4.242;2023-07-08T02:11:07;3.38;;;1.15;;
36691;SDS011;22678;52.052;4.242;2023-07-08T02:13:33;5.93;;;1.38;;
36691;SDS011;22678;52.052;4.242;2023-07-08T02:15:58;2.63;;;0.95;;
36691;SDS011;22678;52.052;4.242;2023-07-08T02:18:23;4.53;;;1.20;;
36691;SDS011;22678;52.052;4.242;2023-07-08T02:20:50;4.28;;;1.25;;
36691;SDS011;22678;52.052;4.242;2023-07-08T02:23:15;3.90;;;1.17;;
36691;SDS011;22678;52.052;4.242;2023-07-08T02:25:41;4.10;;;1.80;;
36691;SDS011;22678;52.052;4.242;2023-07-08T02:28:06;3.92;;;2.05;;
36691;SDS011;22678;52.052;4.242;2023-07-08T02:30:32;3.00;;;1.15;;
36691;SDS011;22678;52.052;4.242;2023-07-08T02:32:57;3.60;;;1.77;;
36691;SDS011;22678;52.052;4.242;2023-07-08T02:35:26;1.70;;;0.70;;
36691;SDS011;22678;52.052;4.242;2023-07-08T02:37:54;2.45;;;1.27;;
36691;SDS011;22678;52.052;4.242;2023-07-08T02:40:20;4.47;;;2.10;;
36691;SDS011;22678;52.052;4.242;2023-07-08T02:42:47;8.65;;;1.65;;
36691;SDS011;22678;52.052;4.242;2023-07-08T02:45:13;4.28;;;1.20;;
36691;SDS011;22678;52.052;4.242;2023-07-08T02:47:38;4.35;;;0.90;;
36691;SDS011;22678;52.052;4.242;2023-07-08T02:50:04;3.70;;;1.85;;
36691;SDS011;22678;52.052;4.242;2023-07-08T02:52:30;8.18;;;2.10;;
36691;SDS011;22678;52.052;4.242;2023-07-08T02:54:56;5.47;;;1.40;;
36691;SDS011;22678;52.052;4.242;2023-07-08T02:57:21;6.28;;;1.33;;
36691;SDS011;22678;52.052;4.242;2023-07-08T02:59:46;4.47;;;1.38;;
36691;SDS011;22678;52.052;4.242;2023-07-08T03:02:12;2.63;;;0.90;;
36691;SDS011;22678;52.052;4.242;2023-07-08T03:04:37;4.30;;;1.17;;
36691;SDS011;22678;52.052;4.242;2023-07-08T03:07:04;4.85;;;1.38;;
36691;SDS011;22678;52.052;4.242;2023-07-08T03:09:30;4.57;;;1.20;;
36691;SDS011;22678;52.052;4.242;2023-07-08T03:11:57;4.75;;;1.80;;
36691;SDS011;22678;52.052;4.242;2023-07-08T03:14:23;4.47;;;1.50;;
36691;SDS011;22678;52.052;4.242;2023-07-08T03:16:49;4.13;;;1.73;;
36691;SDS011;22678;52.052;4.242;2023-07-08T03:19:14;6.40;;;1.83;;
36691;SDS011;22678;52.052;4.242;2023-07-08T03:21:42;3.90;;;1.15;;
36691;SDS011;22678;52.052;4.242;2023-07-08T03:24:11;6.88;;;2.05;;
36691;SDS011;22678;52.052;4.242;2023-07-08T03:26:37;3.83;;;1.70;;
36691;SDS011;22678;52.052;4.242;2023-07-08T03:29:02;5.57;;;1.40;;
36691;SDS011;22678;52.052;4.242;2023-07-08T03:31:28;2.70;;;1.33;;
36691;SDS011;22678;52.052;4.242;2023-07-08T03:33:53;3.72;;;1.23;;
36691;SDS011;22678;52.052;4.242;2023-07-08T03:36:19;3.28;;;0.88;;
36691;SDS011;22678;52.052;4.242;2023-07-08T03:38:51;3.20;;;1.05;;
36691;SDS011;22678;52.052;4.242;2023-07-08T03:41:17;3.80;;;1.50;;
36691;SDS011;22678;52.052;4.242;2023-07-08T03:43:42;6.45;;;1.95;;
36691;SDS011;22678;52.052;4.242;2023-07-08T03:46:11;3.10;;;1.30;;
36691;SDS011;22678;52.052;4.242;2023-07-08T03:48:38;3.92;;;1.45;;
36691;SDS011;22678;52.052;4.242;2023-07-08T03:51:04;3.17;;;1.20;;
36691;SDS011;22678;52.052;4.242;2023-07-08T03:53:33;4.88;;;1.50;;
36691;SDS011;22678;52.052;4.242;2023-07-08T03:55:58;3.33;;;1.17;;
36691;SDS011;22678;52.052;4.242;2023-07-08T03:58:24;7.78;;;1.60;;
36691;SDS011;22678;52.052;4.242;2023-07-08T04:00:49;5.28;;;1.60;;
36691;SDS011;22678;52.052;4.242;2023-07-08T04:03:14;9.45;;;3.22;;
36691;SDS011;22678;52.052;4.242;2023-07-08T04:05:40;4.35;;;1.83;;
36691;SDS011;22678;52.052;4.242;2023-07-08T04:08:05;4.78;;;1.88;;
36691;SDS011;22678;52.052;4.242;2023-07-08T04:10:30;5.10;;;1.95;;
36691;SDS011;22678;52.052;4.242;2023-07-08T04:12:56;4.43;;;3.08;;
36691;SDS011;22678;52.052;4.242;2023-07-08T04:15:21;3.92;;;1.52;;
36691;SDS011;22678;52.052;4.242;2023-07-08T04:17:50;5.82;;;2.22;;
36691;SDS011;22678;52.052;4.242;2023-07-08T04:20:17;4.30;;;1.13;;
36691;SDS011;22678;52.052;4.242;2023-07-08T04:22:44;5.20;;;1.80;;
36691;SDS011;22678;52.052;4.242;2023-07-08T04:25:10;7.75;;;1.50;;
36691;SDS011;22678;52.052;4.242;2023-07-08T04:27:37;5.28;;;2.05;;
36691;SDS011;22678;52.052;4.242;2023-07-08T04:30:03;5.25;;;1.27;;
36691;SDS011;22678;52.052;4.242;2023-07-08T04:32:30;9.00;;;2.13;;
36691;SDS011;22678;52.052;4.242;2023-07-08T04:34:56;5.20;;;1.35;;
36691;SDS011;22678;52.052;4.242;2023-07-08T04:37:21;5.05;;;1.83;;
36691;SDS011;22678;52.052;4.242;2023-07-08T04:39:46;6.90;;;2.42;;
36691;SDS011;22678;52.052;4.242;2023-07-08T04:42:13;4.22;;;2.05;;
36691;SDS011;22678;52.052;4.242;2023-07-08T04:44:40;4.20;;;1.70;;
36691;SDS011;22678;52.052;4.242;2023-07-08T04:47:06;4.63;;;2.30;;
36691;SDS011;22678;52.052;4.242;2023-07-08T04:49:34;3.03;;;1.83;;
36691;SDS011;22678;52.052;4.242;2023-07-08T04:52:00;5.07;;;1.90;;
36691;SDS011;22678;52.052;4.242;2023-07-08T04:54:27;4.97;;;1.60;;
36691;SDS011;22678;52.052;4.242;2023-07-08T04:56:52;2.97;;;1.45;;
36691;SDS011;22678;52.052;4.242;2023-07-08T04:59:21;11.18;;;3.15;;
36691;SDS011;22678;52.052;4.242;2023-07-08T05:01:48;3.75;;;1.10;;
36691;SDS011;22678;52.052;4.242;2023-07-08T05:04:13;4.60;;;1.83;;
36691;SDS011;22678;52.052;4.242;2023-07-08T05:06:40;6.55;;;1.73;;
36691;SDS011;22678;52.052;4.242;2023-07-08T05:09:06;2.85;;;0.95;;
36691;SDS011;22678;52.052;4.242;2023-07-08T05:11:33;5.88;;;1.27;;
36691;SDS011;22678;52.052;4.242;2023-07-08T05:13:58;6.20;;;1.15;;
36691;SDS011;22678;52.052;4.242;2023-07-08T05:16:24;6.25;;;1.50;;
36691;SDS011;22678;52.052;4.242;2023-07-08T05:18:49;11.02;;;2.83;;
36691;SDS011;22678;52.052;4.242;2023-07-08T05:21:15;6.38;;;1.77;;
36691;SDS011;22678;52.052;4.242;2023-07-08T05:23:42;4.47;;;1.38;;
36691;SDS011;22678;52.052;4.242;2023-07-08T05:26:09;5.93;;;1.83;;
36691;SDS011;22678;52.052;4.242;2023-07-08T05:28:34;5.55;;;1.70;;
36691;SDS011;22678;52.052;4.242;2023-07-08T05:31:00;3.58;;;1.48;;
36691;SDS011;22678;52.052;4.242;2023-07-08T05:33:26;3.92;;;1.75;;
36691;SDS011;22678;52.052;4.242;2023-07-08T05:35:53;5.93;;;1.40;;
36691;SDS011;22678;52.052;4.242;2023-07-08T05:38:19;6.40;;;2.45;;
36691;SDS011;22678;52.052;4.242;2023-07-08T05:40:55;5.57;;;1.67;;
36691;SDS011;22678;52.052;4.242;2023-07-08T05:43:22;5.78;;;1.83;;
36691;SDS011;22678;52.052;4.242;2023-07-08T05:45:48;4.43;;;1.25;;
36691;SDS011;22678;52.052;4.242;2023-07-08T05:48:14;9.27;;;2.03;;
36691;SDS011;22678;52.052;4.242;2023-07-08T05:50:39;15.98;;;2.42;;
36691;SDS011;22678;52.052;4.242;2023-07-08T05:53:05;2.95;;;1.33;;
36691;SDS011;22678;52.052;4.242;2023-07-08T05:55:34;2.78;;;0.88;;
36691;SDS011;22678;52.052;4.242;2023-07-08T05:57:59;5.93;;;2.88;;
36691;SDS011;22678;52.052;4.242;2023-07-08T06:00:25;5.60;;;1.40;;
36691;SDS011;22678;52.052;4.242;2023-07-08T06:02:50;3.00;;;1.40;;
36691;SDS011;22678;52.052;4.242;2023-07-08T06:05:15;7.65;;;3.00;;
36691;SDS011;22678;52.052;4.242;2023-07-08T06:07:41;5.63;;;1.42;;
36691;SDS011;22678;52.052;4.242;2023-07-08T06:10:06;2.88;;;1.48;;
36691;SDS011;22678;52.052;4.242;2023-07-08T06:12:32;7.82;;;1.90;;
36691;SDS011;22678;52.052;4.242;2023-07-08T06:14:58;5.78;;;2.65;;
36691;SDS011;22678;52.052;4.242;2023-07-08T06:17:23;3.55;;;1.95;;
36691;SDS011;22678;52.052;4.242;2023-07-08T06:19:49;3.28;;;1.33;;
36691;SDS011;22678;52.052;4.242;2023-07-08T06:22:15;3.75;;;1.10;;
36691;SDS011;22678;52.052;4.242;2023-07-08T06:24:40;3.70;;;1.95;;
36691;SDS011;22678;52.052;4.242;2023-07-08T06:27:05;4.60;;;1.15;;
36691;SDS011;22678;52.052;4.242;2023-07-08T06:29:32;3.80;;;1.35;;
36691;SDS011;22678;52.052;4.242;2023-07-08T06:31:58;5.68;;;1.27;;
36691;SDS011;22678;52.052;4.242;2023-07-08T06:34:24;3.45;;;1.05;;
36691;SDS011;22678;52.052;4.242;2023-07-08T06:36:49;2.78;;;1.08;;
36691;SDS011;22678;52.052;4.242;2023-07-08T06:39:15;4.68;;;2.25;;
36691;SDS011;22678;52.052;4.242;2023-07-08T06:41:41;5.15;;;1.50;;
36691;SDS011;22678;52.052;4.242;2023-07-08T06:44:07;5.13;;;1.63;;
36691;SDS011;22678;52.052;4.242;2023-07-08T06:46:32;4.43;;;1.63;;
36691;SDS011;22678;52.052;4.242;2023-07-08T06:48:58;3.45;;;1.42;;
36691;SDS011;22678;52.052;4.242;2023-07-08T06:51:24;5.38;;;1.40;;
36691;SDS011;22678;52.052;4.242;2023-07-08T06:53:49;7.03;;;1.52;;
36691;SDS011;22678;52.052;4.242;2023-07-08T06:56:14;6.18;;;1.67;;
36691;SDS011;22678;52.052;4.242;2023-07-08T06:58:40;4.85;;;1.75;;
36691;SDS011;22678;52.052;4.242;2023-07-08T07:01:05;6.57;;;2.67;;
36691;SDS011;22678;52.052;4.242;2023-07-08T07:03:30;5.32;;;1.88;;
36691;SDS011;22678;52.052;4.242;2023-07-08T07:05:56;5.57;;;1.52;;
36691;SDS011;22678;52.052;4.242;2023-07-08T07:08:22;6.32;;;2.03;;
36691;SDS011;22678;52.052;4.242;2023-07-08T07:10:47;4.03;;;1.30;;
36691;SDS011;22678;52.052;4.242;2023-07-08T07:13:13;4.95;;;2.55;;
36691;SDS011;22678;52.052;4.242;2023-07-08T07:15:38;6.60;;;2.05;;
36691;SDS011;22678;52.052;4.242;2023-07-08T07:18:04;4.00;;;1.48;;
36691;SDS011;22678;52.052;4.242;2023-07-08T07:20:30;6.88;;;1.77;;
36691;SDS011;22678;52.052;4.242;2023-07-08T07:22:56;5.68;;;1.58;;
36691;SDS011;22678;52.052;4.242;2023-07-08T07:25:22;9.77;;;2.45;;
36691;SDS011;22678;52.052;4.242;2023-07-08T07:27:47;3.70;;;1.58;;
36691;SDS011;22678;52.052;4.242;2023-07-08T07:30:13;9.38;;;1.55;;
36691;SDS011;22678;52.052;4.242;2023-07-08T07:32:40;9.27;;;1.92;;
36691;SDS011;22678;52.052;4.242;2023-07-08T07:35:06;3.97;;;1.65;;
36691;SDS011;22678;52.052;4.242;2023-07-08T07:37:32;9.32;;;2.75;;
36691;SDS011;22678;52.052;4.242;2023-07-08T07:39:58;3.55;;;1.40;;
36691;SDS011;22678;52.052;4.242;2023-07-08T07:42:23;6.15;;;2.15;;
36691;SDS011;22678;52.052;4.242;2023-07-08T07:44:52;6.00;;;2.47;;
36691;SDS011;22678;52.052;4.242;2023-07-08T07:47:17;7.20;;;3.25;;
36691;SDS011;22678;52.052;4.242;2023-07-08T07:49:43;4.65;;;2.08;;
36691;SDS011;22678;52.052;4.242;2023-07-08T07:52:08;4.38;;;1.83;;
36691;SDS011;22678;52.052;4.242;2023-07-08T07:54:35;10.05;;;1.95;;
36691;SDS011;22678;52.052;4.242;2023-07-08T07:57:01;3.83;;;1.67;;
36691;SDS011;22678;52.052;4.242;2023-07-08T07:59:27;8.27;;;2.40;;
36691;SDS011;22678;52.052;4.242;2023-07-08T08:01:52;4.75;;;2.63;;
36691;SDS011;22678;52.052;4.242;2023-07-08T08:04:17;3.63;;;1.85;;
36691;SDS011;22678;52.052;4.242;2023-07-08T08:06:43;4.75;;;2.05;;
36691;SDS011;22678;52.052;4.242;2023-07-08T08:09:08;7.35;;;2.70;;
36691;SDS011;22678;52.052;4.242;2023-07-08T08:11:33;5.10;;;2.55;;
36691;SDS011;22678;52.052;4.242;2023-07-08T08:13:59;4.35;;;1.70;;
36691;SDS011;22678;52.052;4.242;2023-07-08T08:16:25;7.60;;;2.08;;
36691;SDS011;22678;52.052;4.242;2023-07-08T08:18:54;5.68;;;1.98;;
36691;SDS011;22678;52.052;4.242;2023-07-08T08:21:19;8.50;;;3.60;;
36691;SDS011;22678;52.052;4.242;2023-07-08T08:23:46;4.95;;;2.40;;
36691;SDS011;22678;52.052;4.242;2023-07-08T08:26:12;6.75;;;3.35;;
36691;SDS011;22678;52.052;4.242;2023-07-08T08:28:37;6.47;;;2.42;;
36691;SDS011;22678;52.052;4.242;2023-07-08T08:31:03;6.35;;;2.92;;
36691;SDS011;22678;52.052;4.242;2023-07-08T08:33:29;5.55;;;1.92;;
36691;SDS011;22678;52.052;4.242;2023-07-08T08:35:54;9.07;;;2.13;;
36691;SDS011;22678;52.052;4.242;2023-07-08T08:38:20;6.50;;;3.55;;
36691;SDS011;22678;52.052;4.242;2023-07-08T08:40:45;8.02;;;2.33;;
36691;SDS011;22678;52.052;4.242;2023-07-08T08:43:23;4.40;;;2.20;;
36691;SDS011;22678;52.052;4.242;2023-07-08T08:46:10;7.35;;;3.15;;
36691;SDS011;22678;52.052;4.242;2023-07-08T08:51:48;8.82;;;2.58;;
36691;SDS011;22678;52.052;4.242;2023-07-08T08:54:15;5.90;;;2.30;;
36691;SDS011;22678;52.052;4.242;2023-07-08T08:59:38;4.53;;;1.90;;
36691;SDS011;22678;52.052;4.242;2023-07-08T09:05:11;6.18;;;1.83;;
36691;SDS011;22678;52.052;4.242;2023-07-08T09:13:34;4.95;;;2.22;;
36691;SDS011;22678;52.052;4.242;2023-07-08T09:16:06;5.40;;;2.80;;
36691;SDS011;22678;52.052;4.242;2023-07-08T09:18:41;6.30;;;2.65;;
36691;SDS011;22678;52.052;4.242;2023-07-08T09:21:24;9.25;;;3.08;;
36691;SDS011;22678;52.052;4.242;2023-07-08T09:23:54;6.13;;;2.10;;
36691;SDS011;22678;52.052;4.242;2023-07-08T09:26:25;5.10;;;2.15;;
36691;SDS011;22678;52.052;4.242;2023-07-08T09:28:53;5.70;;;2.40;;
36691;SDS011;22678;52.052;4.242;2023-07-08T09:31:24;6.50;;;2.00;;
36691;SDS011;22678;52.052;4.242;2023-07-08T09:36:40;5.57;;;2.53;;
36691;SDS011;22678;52.052;4.242;2023-07-08T09:39:09;6.72;;;2.88;;
36691;SDS011;22678;52.052;4.242;2023-07-08T09:41:36;10.40;;;5.05;;
36691;SDS011;22678;52.052;4.242;2023-07-08T09:46:39;10.40;;;3.00;;
36691;SDS011;22678;52.052;4.242;2023-07-08T09:49:09;5.13;;;2.25;;
36691;SDS011;22678;52.052;4.242;2023-07-08T09:51:42;7.20;;;2.97;;
36691;SDS011;22678;52.052;4.242;2023-07-08T09:54:08;5.30;;;2.38;;
36691;SDS011;22678;52.052;4.242;2023-07-08T09:56:34;6.85;;;2.75;;
36691;SDS011;22678;52.052;4.242;2023-07-08T09:59:00;5.80;;;2.25;;
36691;SDS011;22678;52.052;4.242;2023-07-08T10:01:26;6.63;;;2.63;;
36691;SDS011;22678;52.052;4.242;2023-07-08T10:03:57;6.47;;;2.65;;
36691;SDS011;22678;52.052;4.242;2023-07-08T10:06:27;6.40;;;3.80;;
36691;SDS011;22678;52.052;4.242;2023-07-08T10:08:55;9.15;;;2.67;;
36691;SDS011;22678;52.052;4.242;2023-07-08T10:11:30;10.80;;;3.17;;
36691;SDS011;22678;52.052;4.242;2023-07-08T10:14:41;6.68;;;2.25;;
36691;SDS011;22678;52.052;4.242;2023-07-08T10:16:45;4.65;;;2.85;;
36691;SDS011;22678;52.052;4.242;2023-07-08T10:19:17;8.43;;;2.50;;
36691;SDS011;22678;52.052;4.242;2023-07-08T10:26:55;5.80;;;2.45;;
36691;SDS011;22678;52.052;4.242;2023-07-08T10:32:28;6.28;;;3.05;;
36691;SDS011;22678;52.052;4.242;2023-07-08T10:43:31;9.20;;;2.53;;
36691;SDS011;22678;52.052;4.242;2023-07-08T10:51:26;4.53;;;2.10;;
36691;SDS011;22678;52.052;4.242;2023-07-08T11:05:45;7.20;;;3.10;;
36691;SDS011;22678;52.052;4.242;2023-07-08T11:08:23;7.80;;;1.88;;
36691;SDS011;22678;52.052;4.242;2023-07-08T11:13:36;5.53;;;2.10;;
36691;SDS011;22678;52.052;4.242;2023-07-08T11:16:12;8.00;;;3.08;;
36691;SDS011;22678;52.052;4.242;2023-07-08T11:18:58;4.60;;;1.88;;
36691;SDS011;22678;52.052;4.242;2023-07-08T11:21:35;5.95;;;2.13;;
36691;SDS011;22678;52.052;4.242;2023-07-08T11:26:43;5.38;;;2.67;;
36691;SDS011;22678;52.052;4.242;2023-07-08T11:29:55;7.43;;;2.90;;
36691;SDS011;22678;52.052;4.242;2023-07-08T11:32:01;6.35;;;2.80;;
36691;SDS011;22678;52.052;4.242;2023-07-08T11:34:29;6.47;;;3.15;;
36691;SDS011;22678;52.052;4.242;2023-07-08T11:36:55;7.80;;;2.65;;
36691;SDS011;22678;52.052;4.242;2023-07-08T11:39:33;10.38;;;3.22;;
36691;SDS011;22678;52.052;4.242;2023-07-08T11:42:50;5.97;;;1.88;;
36691;SDS011;22678;52.052;4.242;2023-07-08T11:44:58;5.60;;;2.58;;
36691;SDS011;22678;52.052;4.242;2023-07-08T11:49:55;5.45;;;2.05;;
36691;SDS011;22678;52.052;4.242;2023-07-08T11:52:22;5.82;;;2.67;;
36691;SDS011;22678;52.052;4.242;2023-07-08T11:54:48;6.38;;;2.15;;
36691;SDS011;22678;52.052;4.242;2023-07-08T11:57:36;12.30;;;4.47;;
36691;SDS011;22678;52.052;4.242;2023-07-08T12:00:12;6.05;;;2.67;;
36691;SDS011;22678;52.052;4.242;2023-07-08T12:02:50;5.78;;;2.30;;
36691;SDS011;22678;52.052;4.242;2023-07-08T12:07:57;7.47;;;2.75;;
36691;SDS011;22678;52.052;4.242;2023-07-08T12:13:24;5.95;;;2.50;;
36691;SDS011;22678;52.052;4.242;2023-07-08T12:15:51;6.50;;;2.67;;
36691;SDS011;22678;52.052;4.242;2023-07-08T12:20:56;9.63;;;2.75;;
36691;SDS011;22678;52.052;4.242;2023-07-08T12:23:24;5.82;;;2.75;;
36691;SDS011;22678;52.052;4.242;2023-07-08T12:25:51;5.20;;;3.08;;
36691;SDS011;22678;52.052;4.242;2023-07-08T12:28:18;7.95;;;2.88;;
36691;SDS011;22678;52.052;4.242;2023-07-08T12:30:45;6.18;;;2.75;;
36691;SDS011;22678;52.052;4.242;2023-07-08T12:33:16;8.07;;;3.35;;
36691;SDS011;22678;52.052;4.242;2023-07-08T12:35:44;5.13;;;2.47;;
36691;SDS011;22678;52.052;4.242;2023-07-08T12:40:45;5.97;;;3.00;;
36691;SDS011;22678;52.052;4.242;2023-07-08T12:43:10;7.68;;;3.30;;
36691;SDS011;22678;52.052;4.242;2023-07-08T12:45:36;6.07;;;3.10;;
36691;SDS011;22678;52.052;4.242;2023-07-08T12:48:02;6.78;;;2.42;;
36691;SDS011;22678;52.052;4.242;2023-07-08T12:50:27;9.60;;;3.75;;
36691;SDS011;22678;52.052;4.242;2023-07-08T12:52:53;5.43;;;2.58;;
36691;SDS011;22678;52.052;4.242;2023-07-08T12:55:19;10.55;;;3.72;;
36691;SDS011;22678;52.052;4.242;2023-07-08T12:57:45;6.88;;;3.10;;
36691;SDS011;22678;52.052;4.242;2023-07-08T13:00:21;9.85;;;3.70;;
36691;SDS011;22678;52.052;4.242;2023-07-08T13:02:52;5.65;;;2.80;;
36691;SDS011;22678;52.052;4.242;2023-07-08T13:05:30;6.25;;;3.25;;
36691;SDS011;22678;52.052;4.242;2023-07-08T13:07:56;4.57;;;2.22;;
36691;SDS011;22678;52.052;4.242;2023-07-08T13:10:23;8.18;;;3.38;;
36691;SDS011;22678;52.052;4.242;2023-07-08T13:12:51;7.78;;;3.20;;
36691;SDS011;22678;52.052;4.242;2023-07-08T13:15:24;9.30;;;3.30;;
36691;SDS011;22678;52.052;4.242;2023-07-08T13:17:54;10.40;;;4.60;;
36691;SDS011;22678;52.052;4.242;2023-07-08T13:20:21;9.10;;;3.90;;
36691;SDS011;22678;52.052;4.242;2023-07-08T13:22:50;6.20;;;3.65;;
36691;SDS011;22678;52.052;4.242;2023-07-08T13:25:19;8.75;;;3.47;;
36691;SDS011;22678;52.052;4.242;2023-07-08T13:30:28;10.77;;;3.25;;
36691;SDS011;22678;52.052;4.242;2023-07-08T13:32:55;5.50;;;3.38;;
36691;SDS011;22678;52.052;4.242;2023-07-08T13:35:36;5.72;;;3.80;;
36691;SDS011;22678;52.052;4.242;2023-07-08T13:38:03;9.25;;;3.78;;
36691;SDS011;22678;52.052;4.242;2023-07-08T13:40:30;7.55;;;3.40;;
36691;SDS011;22678;52.052;4.242;2023-07-08T13:42:56;6.53;;;3.38;;
36691;SDS011;22678;52.052;4.242;2023-07-08T13:45:27;8.70;;;4.22;;
36691;SDS011;22678;52.052;4.242;2023-07-08T13:48:09;6.82;;;4.47;;
36691;SDS011;22678;52.052;4.242;2023-07-08T13:53:17;5.30;;;3.25;;
36691;SDS011;22678;52.052;4.242;2023-07-08T13:55:45;6.28;;;3.30;;
36691;SDS011;22678;52.052;4.242;2023-07-08T13:58:14;5.13;;;3.72;;
36691;SDS011;22678;52.052;4.242;2023-07-08T14:00:41;5.18;;;2.75;;
36691;SDS011;22678;52.052;4.242;2023-07-08T14:03:12;7.07;;;3.42;;
36691;SDS011;22678;52.052;4.242;2023-07-08T14:05:43;7.63;;;3.85;;
36691;SDS011;22678;52.052;4.242;2023-07-08T14:08:13;5.43;;;3.30;;
36691;SDS011;22678;52.052;4.242;2023-07-08T14:10:40;8.75;;;3.70;;
36691;SDS011;22678;52.052;4.242;2023-07-08T14:13:05;9.32;;;3.90;;
36691;SDS011;22678;52.052;4.242;2023-07-08T14:15:31;5.72;;;2.83;;
36691;SDS011;22678;52.052;4.242;2023-07-08T14:17:57;6.53;;;3.63;;
36691;SDS011;22678;52.052;4.242;2023-07-08T14:20:24;8.10;;;4.85;;
36691;SDS011;22678;52.052;4.242;2023-07-08T14:22:52;5.95;;;3.42;;
36691;SDS011;22678;52.052;4.242;2023-07-08T14:25:18;7.22;;;4.00;;
36691;SDS011;22678;52.052;4.242;2023-07-08T14:27:46;8.40;;;3.95;;
36691;SDS011;22678;52.052;4.242;2023-07-08T14:30:11;11.02;;;4.75;;
36691;SDS011;22678;52.052;4.242;2023-07-08T14:32:37;7.50;;;3.63;;
36691;SDS011;22678;52.052;4.242;2023-07-08T14:35:36;5.95;;;3.60;;
36691;SDS011;22678;52.052;4.242;2023-07-08T14:37:55;7.93;;;3.83;;
36691;SDS011;22678;52.052;4.242;2023-07-08T14:43:01;6.82;;;3.38;;
36691;SDS011;22678;52.052;4.242;2023-07-08T14:45:30;9.45;;;4.70;;
36691;SDS011;22678;52.052;4.242;2023-07-08T14:48:00;8.73;;;3.80;;
36691;SDS011;22678;52.052;4.242;2023-07-08T14:50:26;11.55;;;4.38;;
36691;SDS011;22678;52.052;4.242;2023-07-08T14:52:54;8.27;;;4.18;;
36691;SDS011;22678;52.052;4.242;2023-07-08T14:55:19;7.88;;;4.57;;
36691;SDS011;22678;52.052;4.242;2023-07-08T14:57:45;7.82;;;4.00;;
36691;SDS011;22678;52.052;4.242;2023-07-08T15:00:13;14.18;;;6.60;;
36691;SDS011;22678;52.052;4.242;2023-07-08T15:02:42;9.02;;;6.28;;
36691;SDS011;22678;52.052;4.242;2023-07-08T15:05:16;23.15;;;17.02;;
36691;SDS011;22678;52.052;4.242;2023-07-08T15:07:53;12.73;;;6.28;;
36691;SDS011;22678;52.052;4.242;2023-07-08T15:10:22;6.90;;;5.07;;
36691;SDS011;22678;52.052;4.242;2023-07-08T15:12:50;7.80;;;5.03;;
36691;SDS011;22678;52.052;4.242;2023-07-08T15:15:16;8.43;;;3.50;;
36691;SDS011;22678;52.052;4.242;2023-07-08T15:17:55;7.88;;;4.18;;
36691;SDS011;22678;52.052;4.242;2023-07-08T15:20:21;6.53;;;3.58;;
36691;SDS011;22678;52.052;4.242;2023-07-08T15:22:47;6.95;;;4.60;;
36691;SDS011;22678;52.052;4.242;2023-07-08T15:25:13;8.60;;;4.68;;
36691;SDS011;22678;52.052;4.242;2023-07-08T15:27:40;14.65;;;4.68;;
36691;SDS011;22678;52.052;4.242;2023-07-08T15:30:16;7.80;;;5.07;;
36691;SDS011;22678;52.052;4.242;2023-07-08T15:32:43;6.35;;;3.80;;
36691;SDS011;22678;52.052;4.242;2023-07-08T15:35:17;10.40;;;4.90;;
36691;SDS011;22678;52.052;4.242;2023-07-08T15:37:44;6.65;;;3.95;;
36691;SDS011;22678;52.052;4.242;2023-07-08T15:40:12;6.55;;;3.97;;
36691;SDS011;22678;52.052;4.242;2023-07-08T15:42:42;6.10;;;3.97;;
36691;SDS011;22678;52.052;4.242;2023-07-08T15:45:13;6.13;;;3.92;;
36691;SDS011;22678;52.052;4.242;2023-07-08T15:47:47;8.75;;;4.10;;
36691;SDS011;22678;52.052;4.242;2023-07-08T15:50:13;7.80;;;3.78;;
36691;SDS011;22678;52.052;4.242;2023-07-08T15:52:42;7.38;;;4.35;;
36691;SDS011;22678;52.052;4.242;2023-07-08T15:55:09;6.65;;;4.15;;
36691;SDS011;22678;52.052;4.242;2023-07-08T15:57:38;6.05;;;4.22;;
36691;SDS011;22678;52.052;4.242;2023-07-08T16:00:20;10.75;;;4.30;;
36691;SDS011;22678;52.052;4.242;2023-07-08T16:02:49;13.57;;;5.68;;
36691;SDS011;22678;52.052;4.242;2023-07-08T16:05:21;9.80;;;6.40;;
36691;SDS011;22678;52.052;4.242;2023-07-08T16:07:49;19.23;;;14.52;;
36691;SDS011;22678;52.052;4.242;2023-07-08T16:10:16;49.53;;;38.30;;
36691;SDS011;22678;52.052;4.242;2023-07-08T16:12:42;17.77;;;12.55;;
36691;SDS011;22678;52.052;4.242;2023-07-08T16:15:16;19.35;;;15.80;;
36691;SDS011;22678;52.052;4.242;2023-07-08T16:17:44;8.98;;;6.15;;
36691;SDS011;22678;52.052;4.242;2023-07-08T16:20:17;10.85;;;5.28;;
36691;SDS011;22678;52.052;4.242;2023-07-08T16:22:44;7.45;;;5.60;;